sensor_id;sensor_type;location;lat;lon;timestamp;temperature;humidity
22779;DHT22;11556;51.194;3.800;2022-08-16T00:00:13;22.10;99.90
22779;DHT22;11556;51.194;3.800;2022-08-16T00:02:40;22.00;99.90
22779;DHT22;11556;51.194;3.800;2022-08-16T00:05:09;22.00;99.90
22779;DHT22;11556;51.194;3.800;2022-08-16T00:07:35;22.00;99.90
22779;DHT22;11556;51.194;3.800;2022-08-16T00:10:03;21.90;99.90
22779;DHT22;11556;51.194;3.800;2022-08-16T00:12:29;21.90;99.90
22779;DHT22;11556;51.194;3.800;2022-08-16T00:14:57;21.80;99.90
22779;DHT22;11556;51.194;3.800;2022-08-16T00:17:25;21.80;99.90
22779;DHT22;11556;51.194;3.800;2022-08-16T00:19:51;21.70;99.90
22779;DHT22;11556;51.194;3.800;2022-08-16T00:22:17;21.70;99.90
22779;DHT22;11556;51.194;3.800;2022-08-16T00:24:43;21.70;99.90
22779;DHT22;11556;51.194;3.800;2022-08-16T00:27:09;21.70;99.90
22779;DHT22;11556;51.194;3.800;2022-08-16T00:29:35;21.70;99.90
22779;DHT22;11556;51.194;3.800;2022-08-16T00:32:03;21.60;99.90
22779;DHT22;11556;51.194;3.800;2022-08-16T00:34:29;21.70;99.90
22779;DHT22;11556;51.194;3.800;2022-08-16T00:36:55;21.70;99.90
22779;DHT22;11556;51.194;3.800;2022-08-16T00:39:20;21.70;99.90
22779;DHT22;11556;51.194;3.800;2022-08-16T00:41:48;21.60;99.90
22779;DHT22;11556;51.194;3.800;2022-08-16T00:44:15;21.50;99.90
22779;DHT22;11556;51.194;3.800;2022-08-16T00:46:55;21.50;99.90
22779;DHT22;11556;51.194;3.800;2022-08-16T00:49:23;21.40;99.90
22779;DHT22;11556;51.194;3.800;2022-08-16T00:51:50;21.40;99.90
22779;DHT22;11556;51.194;3.800;2022-08-16T00:54:16;21.40;99.90
22779;DHT22;11556;51.194;3.800;2022-08-16T00:56:44;21.40;99.90
22779;DHT22;11556;51.194;3.800;2022-08-16T00:59:13;21.40;99.90
22779;DHT22;11556;51.194;3.800;2022-08-16T01:01:40;21.40;99.90
22779;DHT22;11556;51.194;3.800;2022-08-16T01:04:06;21.40;99.90
22779;DHT22;11556;51.194;3.800;2022-08-16T01:06:33;21.40;99.90
22779;DHT22;11556;51.194;3.800;2022-08-16T01:09:00;21.40;99.90
22779;DHT22;11556;51.194;3.800;2022-08-16T01:11:30;21.40;99.90
22779;DHT22;11556;51.194;3.800;2022-08-16T01:14:05;21.30;99.90
22779;DHT22;11556;51.194;3.800;2022-08-16T01:16:33;21.30;99.90
22779;DHT22;11556;51.194;3.800;2022-08-16T01:19:10;21.30;99.90
22779;DHT22;11556;51.194;3.800;2022-08-16T01:21:54;21.30;99.90
22779;DHT22;11556;51.194;3.800;2022-08-16T01:24:47;21.20;99.90
22779;DHT22;11556;51.194;3.800;2022-08-16T01:27:21;21.10;99.90
22779;DHT22;11556;51.194;3.800;2022-08-16T01:30:00;21.10;99.90
22779;DHT22;11556;51.194;3.800;2022-08-16T01:32:29;21.10;99.90
22779;DHT22;11556;51.194;3.800;2022-08-16T01:34:56;21.20;99.90
22779;DHT22;11556;51.194;3.800;2022-08-16T01:37:21;21.10;99.90
22779;DHT22;11556;51.194;3.800;2022-08-16T01:39:47;21.00;99.90
22779;DHT22;11556;51.194;3.800;2022-08-16T01:42:13;21.10;99.90
22779;DHT22;11556;51.194;3.800;2022-08-16T01:44:39;20.90;99.90
22779;DHT22;11556;51.194;3.800;2022-08-16T01:47:07;20.90;99.90
22779;DHT22;11556;51.194;3.800;2022-08-16T01:49:36;20.90;99.90
22779;DHT22;11556;51.194;3.800;2022-08-16T01:52:16;20.90;99.90
22779;DHT22;11556;51.194;3.800;2022-08-16T01:54:42;20.90;99.90
22779;DHT22;11556;51.194;3.800;2022-08-16T01:57:08;20.90;99.90
22779;DHT22;11556;51.194;3.800;2022-08-16T01:59:35;20.90;99.90
22779;DHT22;11556;51.194;3.800;2022-08-16T02:02:02;20.90;99.90
22779;DHT22;11556;51.194;3.800;2022-08-16T02:04:29;20.80;99.90
22779;DHT22;11556;51.194;3.800;2022-08-16T02:06:55;20.70;99.90
22779;DHT22;11556;51.194;3.800;2022-08-16T02:09:22;20.70;99.90
22779;DHT22;11556;51.194;3.800;2022-08-16T02:11:52;20.60;99.90
22779;DHT22;11556;51.194;3.800;2022-08-16T02:14:19;20.50;99.90
22779;DHT22;11556;51.194;3.800;2022-08-16T02:16:45;20.50;99.90
22779;DHT22;11556;51.194;3.800;2022-08-16T02:19:11;20.50;99.90
22779;DHT22;11556;51.194;3.800;2022-08-16T02:21:37;20.40;99.90
22779;DHT22;11556;51.194;3.800;2022-08-16T02:24:03;20.40;99.90
22779;DHT22;11556;51.194;3.800;2022-08-16T02:26:29;20.30;99.90
22779;DHT22;11556;51.194;3.800;2022-08-16T02:28:55;20.30;99.90
22779;DHT22;11556;51.194;3.800;2022-08-16T02:31:21;20.20;99.90
22779;DHT22;11556;51.194;3.800;2022-08-16T02:33:47;20.20;99.90
22779;DHT22;11556;51.194;3.800;2022-08-16T02:36:14;20.30;99.90
22779;DHT22;11556;51.194;3.800;2022-08-16T02:38:40;20.20;99.90
22779;DHT22;11556;51.194;3.800;2022-08-16T02:41:08;20.20;99.90
22779;DHT22;11556;51.194;3.800;2022-08-16T02:43:35;20.20;99.90
22779;DHT22;11556;51.194;3.800;2022-08-16T02:46:03;20.10;99.90
22779;DHT22;11556;51.194;3.800;2022-08-16T02:48:29;20.20;99.90
22779;DHT22;11556;51.194;3.800;2022-08-16T02:51:01;20.20;99.90
22779;DHT22;11556;51.194;3.800;2022-08-16T02:53:27;20.20;99.90
22779;DHT22;11556;51.194;3.800;2022-08-16T02:55:52;20.20;99.90
22779;DHT22;11556;51.194;3.800;2022-08-16T02:58:19;20.20;99.90
22779;DHT22;11556;51.194;3.800;2022-08-16T03:00:45;20.20;99.90
22779;DHT22;11556;51.194;3.800;2022-08-16T03:03:11;20.20;99.90
22779;DHT22;11556;51.194;3.800;2022-08-16T03:05:36;20.30;99.90
22779;DHT22;11556;51.194;3.800;2022-08-16T03:08:02;20.40;99.90
22779;DHT22;11556;51.194;3.800;2022-08-16T03:10:28;20.30;99.90
22779;DHT22;11556;51.194;3.800;2022-08-16T03:12:54;20.30;99.90
22779;DHT22;11556;51.194;3.800;2022-08-16T03:15:20;20.30;99.90
22779;DHT22;11556;51.194;3.800;2022-08-16T03:17:45;20.30;99.90
22779;DHT22;11556;51.194;3.800;2022-08-16T03:20:13;20.20;99.90
22779;DHT22;11556;51.194;3.800;2022-08-16T03:22:40;20.30;99.90
22779;DHT22;11556;51.194;3.800;2022-08-16T03:25:09;20.20;99.90
22779;DHT22;11556;51.194;3.800;2022-08-16T03:27:35;20.20;99.90
22779;DHT22;11556;51.194;3.800;2022-08-16T03:30:13;20.20;99.90
22779;DHT22;11556;51.194;3.800;2022-08-16T03:32:40;20.20;99.90
22779;DHT22;11556;51.194;3.800;2022-08-16T03:35:06;20.20;99.90
22779;DHT22;11556;51.194;3.800;2022-08-16T03:37:33;20.10;99.90
22779;DHT22;11556;51.194;3.800;2022-08-16T03:39:59;20.00;99.90
22779;DHT22;11556;51.194;3.800;2022-08-16T03:42:25;20.00;99.90
22779;DHT22;11556;51.194;3.800;2022-08-16T03:44:50;20.00;99.90
22779;DHT22;11556;51.194;3.800;2022-08-16T03:47:16;19.90;99.90
22779;DHT22;11556;51.194;3.800;2022-08-16T03:49:43;19.90;99.90
22779;DHT22;11556;51.194;3.800;2022-08-16T03:52:09;19.80;99.90
22779;DHT22;11556;51.194;3.800;2022-08-16T03:54:35;19.80;99.90
22779;DHT22;11556;51.194;3.800;2022-08-16T03:57:01;19.70;99.90
22779;DHT22;11556;51.194;3.800;2022-08-16T03:59:27;19.70;99.90
22779;DHT22;11556;51.194;3.800;2022-08-16T04:01:53;19.70;99.90
22779;DHT22;11556;51.194;3.800;2022-08-16T04:04:19;19.70;99.90
22779;DHT22;11556;51.194;3.800;2022-08-16T04:06:45;19.70;99.90
22779;DHT22;11556;51.194;3.800;2022-08-16T04:09:11;19.70;99.90
22779;DHT22;11556;51.194;3.800;2022-08-16T04:11:38;19.80;99.90
22779;DHT22;11556;51.194;3.800;2022-08-16T04:14:03;19.70;99.90
22779;DHT22;11556;51.194;3.800;2022-08-16T04:16:29;19.60;99.90
22779;DHT22;11556;51.194;3.800;2022-08-16T04:18:56;19.70;99.90
22779;DHT22;11556;51.194;3.800;2022-08-16T04:21:22;19.60;99.90
22779;DHT22;11556;51.194;3.800;2022-08-16T04:23:48;19.70;99.90
22779;DHT22;11556;51.194;3.800;2022-08-16T04:26:13;19.70;99.90
22779;DHT22;11556;51.194;3.800;2022-08-16T04:28:39;19.70;99.90
22779;DHT22;11556;51.194;3.800;2022-08-16T04:31:05;19.60;99.90
22779;DHT22;11556;51.194;3.800;2022-08-16T04:33:31;19.60;99.90
22779;DHT22;11556;51.194;3.800;2022-08-16T04:35:57;19.60;99.90
22779;DHT22;11556;51.194;3.800;2022-08-16T04:38:29;19.70;99.90
22779;DHT22;11556;51.194;3.800;2022-08-16T04:40:55;19.80;99.90
22779;DHT22;11556;51.194;3.800;2022-08-16T04:43:21;19.70;99.90
22779;DHT22;11556;51.194;3.800;2022-08-16T04:45:47;19.80;99.90
22779;DHT22;11556;51.194;3.800;2022-08-16T04:48:13;19.80;99.90
22779;DHT22;11556;51.194;3.800;2022-08-16T04:50:38;19.90;99.90
22779;DHT22;11556;51.194;3.800;2022-08-16T04:53:04;20.00;99.90
22779;DHT22;11556;51.194;3.800;2022-08-16T04:55:30;20.10;99.90
22779;DHT22;11556;51.194;3.800;2022-08-16T04:57:56;20.20;99.90
22779;DHT22;11556;51.194;3.800;2022-08-16T05:00:27;20.20;99.90
22779;DHT22;11556;51.194;3.800;2022-08-16T05:02:58;20.20;99.90
22779;DHT22;11556;51.194;3.800;2022-08-16T05:05:24;20.20;99.90
22779;DHT22;11556;51.194;3.800;2022-08-16T05:07:49;20.30;99.90
22779;DHT22;11556;51.194;3.800;2022-08-16T05:10:15;20.30;99.90
22779;DHT22;11556;51.194;3.800;2022-08-16T05:12:41;20.50;99.90
22779;DHT22;11556;51.194;3.800;2022-08-16T05:15:08;20.60;99.90
22779;DHT22;11556;51.194;3.800;2022-08-16T05:17:34;20.60;99.90
22779;DHT22;11556;51.194;3.800;2022-08-16T05:20:00;20.70;99.90
22779;DHT22;11556;51.194;3.800;2022-08-16T05:22:26;20.70;99.90
22779;DHT22;11556;51.194;3.800;2022-08-16T05:24:52;20.90;99.90
22779;DHT22;11556;51.194;3.800;2022-08-16T05:27:18;21.00;99.90
22779;DHT22;11556;51.194;3.800;2022-08-16T05:29:44;21.10;99.90
22779;DHT22;11556;51.194;3.800;2022-08-16T05:32:09;20.90;99.90
22779;DHT22;11556;51.194;3.800;2022-08-16T05:34:35;21.00;99.90
22779;DHT22;11556;51.194;3.800;2022-08-16T05:37:01;21.20;99.90
22779;DHT22;11556;51.194;3.800;2022-08-16T05:39:27;21.20;99.90
22779;DHT22;11556;51.194;3.800;2022-08-16T05:41:53;21.20;99.90
22779;DHT22;11556;51.194;3.800;2022-08-16T05:44:21;21.30;99.90
22779;DHT22;11556;51.194;3.800;2022-08-16T05:46:48;21.30;99.90
22779;DHT22;11556;51.194;3.800;2022-08-16T05:49:15;21.90;99.90
22779;DHT22;11556;51.194;3.800;2022-08-16T05:51:45;23.00;99.90
22779;DHT22;11556;51.194;3.800;2022-08-16T05:54:13;23.70;99.90
22779;DHT22;11556;51.194;3.800;2022-08-16T05:56:39;24.60;99.90
22779;DHT22;11556;51.194;3.800;2022-08-16T05:59:06;25.30;99.90
22779;DHT22;11556;51.194;3.800;2022-08-16T06:01:34;25.90;99.90
22779;DHT22;11556;51.194;3.800;2022-08-16T06:03:59;26.30;99.90
22779;DHT22;11556;51.194;3.800;2022-08-16T06:06:25;26.30;99.90
22779;DHT22;11556;51.194;3.800;2022-08-16T06:08:50;26.50;99.90
22779;DHT22;11556;51.194;3.800;2022-08-16T06:11:16;26.30;99.90
22779;DHT22;11556;51.194;3.800;2022-08-16T06:13:42;25.60;99.90
22779;DHT22;11556;51.194;3.800;2022-08-16T06:16:08;24.80;99.90
22779;DHT22;11556;51.194;3.800;2022-08-16T06:18:33;24.60;99.90
22779;DHT22;11556;51.194;3.800;2022-08-16T06:20:59;24.80;99.90
22779;DHT22;11556;51.194;3.800;2022-08-16T06:23:25;25.10;99.90
22779;DHT22;11556;51.194;3.800;2022-08-16T06:25:51;25.10;99.90
22779;DHT22;11556;51.194;3.800;2022-08-16T06:28:17;24.80;99.90
22779;DHT22;11556;51.194;3.800;2022-08-16T06:30:44;24.40;99.90
22779;DHT22;11556;51.194;3.800;2022-08-16T06:33:15;24.70;99.90
22779;DHT22;11556;51.194;3.800;2022-08-16T06:35:41;24.80;99.90
22779;DHT22;11556;51.194;3.800;2022-08-16T06:38:07;24.70;99.90
22779;DHT22;11556;51.194;3.800;2022-08-16T06:40:33;24.80;99.90
22779;DHT22;11556;51.194;3.800;2022-08-16T06:42:59;25.20;99.90
22779;DHT22;11556;51.194;3.800;2022-08-16T06:45:25;25.10;99.90
22779;DHT22;11556;51.194;3.800;2022-08-16T06:47:51;25.00;99.90
22779;DHT22;11556;51.194;3.800;2022-08-16T06:50:17;24.90;99.90
22779;DHT22;11556;51.194;3.800;2022-08-16T06:52:43;24.80;99.90
22779;DHT22;11556;51.194;3.800;2022-08-16T06:55:12;25.40;99.90
22779;DHT22;11556;51.194;3.800;2022-08-16T06:57:38;26.90;99.90
22779;DHT22;11556;51.194;3.800;2022-08-16T07:00:06;28.40;99.20
22779;DHT22;11556;51.194;3.800;2022-08-16T07:02:42;30.10;95.30
22779;DHT22;11556;51.194;3.800;2022-08-16T07:05:10;31.20;90.40
22779;DHT22;11556;51.194;3.800;2022-08-16T07:07:37;31.70;86.50
22779;DHT22;11556;51.194;3.800;2022-08-16T07:10:05;31.60;85.30
22779;DHT22;11556;51.194;3.800;2022-08-16T07:12:31;31.00;86.20
22779;DHT22;11556;51.194;3.800;2022-08-16T07:14:57;29.90;90.20
22779;DHT22;11556;51.194;3.800;2022-08-16T07:17:25;29.40;91.40
22779;DHT22;11556;51.194;3.800;2022-08-16T07:19:52;28.90;92.10
22779;DHT22;11556;51.194;3.800;2022-08-16T07:22:18;28.40;93.30
22779;DHT22;11556;51.194;3.800;2022-08-16T07:24:44;28.30;93.30
22779;DHT22;11556;51.194;3.800;2022-08-16T07:27:10;28.10;94.20
22779;DHT22;11556;51.194;3.800;2022-08-16T07:29:37;27.70;94.60
22779;DHT22;11556;51.194;3.800;2022-08-16T07:32:04;27.40;95.20
22779;DHT22;11556;51.194;3.800;2022-08-16T07:34:30;27.50;95.30
22779;DHT22;11556;51.194;3.800;2022-08-16T07:36:58;27.60;95.60
22779;DHT22;11556;51.194;3.800;2022-08-16T07:39:25;28.40;94.80
22779;DHT22;11556;51.194;3.800;2022-08-16T07:41:50;29.00;92.20
22779;DHT22;11556;51.194;3.800;2022-08-16T07:44:16;28.80;92.50
22779;DHT22;11556;51.194;3.800;2022-08-16T07:46:42;29.10;92.40
22779;DHT22;11556;51.194;3.800;2022-08-16T07:49:08;30.30;90.10
22779;DHT22;11556;51.194;3.800;2022-08-16T07:51:34;30.80;86.90
22779;DHT22;11556;51.194;3.800;2022-08-16T07:54:02;30.40;85.60
22779;DHT22;11556;51.194;3.800;2022-08-16T07:56:28;29.60;88.20
22779;DHT22;11556;51.194;3.800;2022-08-16T07:58:55;29.10;90.00
22779;DHT22;11556;51.194;3.800;2022-08-16T08:01:21;29.20;88.80
22779;DHT22;11556;51.194;3.800;2022-08-16T08:03:48;28.70;90.40
22779;DHT22;11556;51.194;3.800;2022-08-16T08:06:16;28.70;90.70
22779;DHT22;11556;51.194;3.800;2022-08-16T08:08:42;28.40;91.10
22779;DHT22;11556;51.194;3.800;2022-08-16T08:11:08;27.90;92.00
22779;DHT22;11556;51.194;3.800;2022-08-16T08:13:34;27.20;93.70
22779;DHT22;11556;51.194;3.800;2022-08-16T08:16:00;26.90;95.20
22779;DHT22;11556;51.194;3.800;2022-08-16T08:18:25;27.00;95.30
22779;DHT22;11556;51.194;3.800;2022-08-16T08:20:51;26.90;95.50
22779;DHT22;11556;51.194;3.800;2022-08-16T08:23:17;27.10;95.80
22779;DHT22;11556;51.194;3.800;2022-08-16T08:25:45;27.00;96.20
22779;DHT22;11556;51.194;3.800;2022-08-16T08:28:11;27.30;96.40
22779;DHT22;11556;51.194;3.800;2022-08-16T08:30:38;27.70;95.70
22779;DHT22;11556;51.194;3.800;2022-08-16T08:33:03;28.20;94.80
22779;DHT22;11556;51.194;3.800;2022-08-16T08:35:29;28.70;93.30
22779;DHT22;11556;51.194;3.800;2022-08-16T08:37:55;28.60;93.00
22779;DHT22;11556;51.194;3.800;2022-08-16T08:40:22;28.10;93.50
22779;DHT22;11556;51.194;3.800;2022-08-16T08:42:48;27.60;94.40
22779;DHT22;11556;51.194;3.800;2022-08-16T08:45:14;27.30;95.60
22779;DHT22;11556;51.194;3.800;2022-08-16T08:47:41;27.10;95.40
22779;DHT22;11556;51.194;3.800;2022-08-16T08:50:07;26.90;95.80
22779;DHT22;11556;51.194;3.800;2022-08-16T08:52:33;26.70;96.20
22779;DHT22;11556;51.194;3.800;2022-08-16T08:54:58;26.50;96.80
22779;DHT22;11556;51.194;3.800;2022-08-16T08:57:29;26.50;97.50
22779;DHT22;11556;51.194;3.800;2022-08-16T08:59:54;26.60;97.60
22779;DHT22;11556;51.194;3.800;2022-08-16T09:02:20;26.80;97.10
22779;DHT22;11556;51.194;3.800;2022-08-16T09:04:46;26.80;97.30
22779;DHT22;11556;51.194;3.800;2022-08-16T09:07:12;26.60;98.00
22779;DHT22;11556;51.194;3.800;2022-08-16T09:09:37;26.60;98.70
22779;DHT22;11556;51.194;3.800;2022-08-16T09:12:04;26.60;99.30
22779;DHT22;11556;51.194;3.800;2022-08-16T09:14:30;26.70;99.10
22779;DHT22;11556;51.194;3.800;2022-08-16T09:16:56;26.60;98.80
22779;DHT22;11556;51.194;3.800;2022-08-16T09:19:21;26.60;99.10
22779;DHT22;11556;51.194;3.800;2022-08-16T09:21:48;26.60;99.30
22779;DHT22;11556;51.194;3.800;2022-08-16T09:24:16;26.50;97.70
22779;DHT22;11556;51.194;3.800;2022-08-16T09:26:42;26.40;97.60
22779;DHT22;11556;51.194;3.800;2022-08-16T09:29:08;26.40;97.50
22779;DHT22;11556;51.194;3.800;2022-08-16T09:31:34;26.40;97.70
22779;DHT22;11556;51.194;3.800;2022-08-16T09:33:59;26.60;98.10
22779;DHT22;11556;51.194;3.800;2022-08-16T09:36:28;26.70;98.30
22779;DHT22;11556;51.194;3.800;2022-08-16T09:38:55;27.00;98.00
22779;DHT22;11556;51.194;3.800;2022-08-16T09:41:21;27.20;98.30
22779;DHT22;11556;51.194;3.800;2022-08-16T09:43:46;27.90;96.40
22779;DHT22;11556;51.194;3.800;2022-08-16T09:46:12;28.60;92.70
22779;DHT22;11556;51.194;3.800;2022-08-16T09:48:38;29.30;92.00
22779;DHT22;11556;51.194;3.800;2022-08-16T09:51:08;30.10;89.60
22779;DHT22;11556;51.194;3.800;2022-08-16T09:53:34;30.90;86.70
22779;DHT22;11556;51.194;3.800;2022-08-16T09:56:02;31.50;82.90
22779;DHT22;11556;51.194;3.800;2022-08-16T09:58:29;31.30;81.70
22779;DHT22;11556;51.194;3.800;2022-08-16T10:00:55;31.70;80.60
22779;DHT22;11556;51.194;3.800;2022-08-16T10:03:21;32.40;76.20
22779;DHT22;11556;51.194;3.800;2022-08-16T10:05:48;33.00;71.70
22779;DHT22;11556;51.194;3.800;2022-08-16T10:08:14;33.40;70.80
22779;DHT22;11556;51.194;3.800;2022-08-16T10:10:41;34.40;65.50
22779;DHT22;11556;51.194;3.800;2022-08-16T10:13:28;34.70;64.40
22779;DHT22;11556;51.194;3.800;2022-08-16T10:15:54;35.30;62.00
22779;DHT22;11556;51.194;3.800;2022-08-16T10:18:25;35.20;61.60
22779;DHT22;11556;51.194;3.800;2022-08-16T10:20:52;34.50;62.20
22779;DHT22;11556;51.194;3.800;2022-08-16T10:23:18;33.10;63.10
22779;DHT22;11556;51.194;3.800;2022-08-16T10:25:45;32.00;67.00
22779;DHT22;11556;51.194;3.800;2022-08-16T10:28:11;31.30;69.30
22779;DHT22;11556;51.194;3.800;2022-08-16T10:30:38;30.90;71.70
22779;DHT22;11556;51.194;3.800;2022-08-16T10:33:06;30.30;74.20
22779;DHT22;11556;51.194;3.800;2022-08-16T10:35:32;29.40;78.20
22779;DHT22;11556;51.194;3.800;2022-08-16T10:37:57;29.10;80.10
22779;DHT22;11556;51.194;3.800;2022-08-16T10:40:23;29.10;80.00
22779;DHT22;11556;51.194;3.800;2022-08-16T10:42:49;28.70;82.90
22779;DHT22;11556;51.194;3.800;2022-08-16T10:45:16;28.60;83.40
22779;DHT22;11556;51.194;3.800;2022-08-16T10:47:42;28.30;86.00
22779;DHT22;11556;51.194;3.800;2022-08-16T10:50:08;28.10;86.70
22779;DHT22;11556;51.194;3.800;2022-08-16T10:52:34;27.80;87.90
22779;DHT22;11556;51.194;3.800;2022-08-16T10:54:59;28.10;86.70
22779;DHT22;11556;51.194;3.800;2022-08-16T10:57:27;28.50;84.80
22779;DHT22;11556;51.194;3.800;2022-08-16T10:59:53;28.60;82.90
22779;DHT22;11556;51.194;3.800;2022-08-16T11:02:20;28.70;83.70
22779;DHT22;11556;51.194;3.800;2022-08-16T11:04:47;28.70;84.90
22779;DHT22;11556;51.194;3.800;2022-08-16T11:07:12;28.70;86.30
22779;DHT22;11556;51.194;3.800;2022-08-16T11:09:39;28.80;85.60
22779;DHT22;11556;51.194;3.800;2022-08-16T11:12:05;29.10;84.10
22779;DHT22;11556;51.194;3.800;2022-08-16T11:14:32;29.40;83.00
22779;DHT22;11556;51.194;3.800;2022-08-16T11:16:59;29.40;82.70
22779;DHT22;11556;51.194;3.800;2022-08-16T11:19:26;30.00;81.90
22779;DHT22;11556;51.194;3.800;2022-08-16T11:21:52;31.40;77.80
22779;DHT22;11556;51.194;3.800;2022-08-16T11:24:18;32.60;71.30
22779;DHT22;11556;51.194;3.800;2022-08-16T11:26:43;33.60;67.90
22779;DHT22;11556;51.194;3.800;2022-08-16T11:29:09;33.40;67.70
22779;DHT22;11556;51.194;3.800;2022-08-16T11:31:35;33.70;65.70
22779;DHT22;11556;51.194;3.800;2022-08-16T11:34:01;34.30;58.40
22779;DHT22;11556;51.194;3.800;2022-08-16T11:36:27;34.60;57.20
22779;DHT22;11556;51.194;3.800;2022-08-16T11:38:54;35.00;58.50
22779;DHT22;11556;51.194;3.800;2022-08-16T11:41:19;34.40;56.00
22779;DHT22;11556;51.194;3.800;2022-08-16T11:43:45;34.40;55.60
22779;DHT22;11556;51.194;3.800;2022-08-16T11:46:13;33.40;56.70
22779;DHT22;11556;51.194;3.800;2022-08-16T11:48:39;33.30;56.60
22779;DHT22;11556;51.194;3.800;2022-08-16T11:51:05;33.90;56.30
22779;DHT22;11556;51.194;3.800;2022-08-16T11:53:32;34.80;53.90
22779;DHT22;11556;51.194;3.800;2022-08-16T11:55:59;35.10;52.50
22779;DHT22;11556;51.194;3.800;2022-08-16T11:58:27;34.90;51.90
22779;DHT22;11556;51.194;3.800;2022-08-16T12:00:54;34.40;52.00
22779;DHT22;11556;51.194;3.800;2022-08-16T12:03:23;34.30;52.60
22779;DHT22;11556;51.194;3.800;2022-08-16T12:05:49;34.30;51.80
22779;DHT22;11556;51.194;3.800;2022-08-16T12:08:15;34.60;51.90
22779;DHT22;11556;51.194;3.800;2022-08-16T12:10:42;35.70;50.40
22779;DHT22;11556;51.194;3.800;2022-08-16T12:13:10;37.10;48.80
22779;DHT22;11556;51.194;3.800;2022-08-16T12:15:36;37.70;47.20
22779;DHT22;11556;51.194;3.800;2022-08-16T12:18:03;37.50;47.30
22779;DHT22;11556;51.194;3.800;2022-08-16T12:20:32;37.50;45.70
22779;DHT22;11556;51.194;3.800;2022-08-16T12:22:58;37.70;46.30
22779;DHT22;11556;51.194;3.800;2022-08-16T12:25:25;38.00;47.40
22779;DHT22;11556;51.194;3.800;2022-08-16T12:27:53;38.20;45.70
22779;DHT22;11556;51.194;3.800;2022-08-16T12:30:23;38.20;45.90
22779;DHT22;11556;51.194;3.800;2022-08-16T12:32:49;38.50;44.70
22779;DHT22;11556;51.194;3.800;2022-08-16T12:35:18;38.30;45.30
22779;DHT22;11556;51.194;3.800;2022-08-16T12:37:45;38.20;45.30
22779;DHT22;11556;51.194;3.800;2022-08-16T12:40:16;38.20;46.00
22779;DHT22;11556;51.194;3.800;2022-08-16T12:42:42;38.30;44.30
22779;DHT22;11556;51.194;3.800;2022-08-16T12:45:11;38.30;43.30
22779;DHT22;11556;51.194;3.800;2022-08-16T12:47:37;37.80;43.10
22779;DHT22;11556;51.194;3.800;2022-08-16T12:50:21;37.90;43.70
22779;DHT22;11556;51.194;3.800;2022-08-16T12:52:47;38.30;43.90
22779;DHT22;11556;51.194;3.800;2022-08-16T12:55:13;38.40;43.00
22779;DHT22;11556;51.194;3.800;2022-08-16T12:57:38;38.60;43.60
22779;DHT22;11556;51.194;3.800;2022-08-16T13:00:09;39.00;42.30
22779;DHT22;11556;51.194;3.800;2022-08-16T13:02:38;38.90;42.40
22779;DHT22;11556;51.194;3.800;2022-08-16T13:05:04;39.10;42.90
22779;DHT22;11556;51.194;3.800;2022-08-16T13:07:31;39.20;41.50
22779;DHT22;11556;51.194;3.800;2022-08-16T13:09:58;39.40;41.10
22779;DHT22;11556;51.194;3.800;2022-08-16T13:12:36;39.40;41.30
22779;DHT22;11556;51.194;3.800;2022-08-16T13:15:09;39.20;41.70
22779;DHT22;11556;51.194;3.800;2022-08-16T13:17:35;38.00;42.60
22779;DHT22;11556;51.194;3.800;2022-08-16T13:20:01;37.10;43.70
22779;DHT22;11556;51.194;3.800;2022-08-16T13:22:27;35.40;46.30
22779;DHT22;11556;51.194;3.800;2022-08-16T13:24:53;34.80;47.20
22779;DHT22;11556;51.194;3.800;2022-08-16T13:27:19;35.20;47.80
22779;DHT22;11556;51.194;3.800;2022-08-16T13:29:45;35.70;46.20
22779;DHT22;11556;51.194;3.800;2022-08-16T13:32:10;35.80;45.90
22779;DHT22;11556;51.194;3.800;2022-08-16T13:34:36;35.80;46.00
22779;DHT22;11556;51.194;3.800;2022-08-16T13:37:02;35.90;45.50
22779;DHT22;11556;51.194;3.800;2022-08-16T13:39:28;36.90;44.80
22779;DHT22;11556;51.194;3.800;2022-08-16T13:41:56;37.20;44.10
22779;DHT22;11556;51.194;3.800;2022-08-16T13:44:21;37.00;43.70
22779;DHT22;11556;51.194;3.800;2022-08-16T13:46:47;36.10;45.30
22779;DHT22;11556;51.194;3.800;2022-08-16T13:49:14;35.70;45.80
22779;DHT22;11556;51.194;3.800;2022-08-16T13:51:39;35.00;47.00
22779;DHT22;11556;51.194;3.800;2022-08-16T13:54:05;34.60;47.60
22779;DHT22;11556;51.194;3.800;2022-08-16T13:56:34;34.70;47.50
22779;DHT22;11556;51.194;3.800;2022-08-16T13:58:59;34.10;48.10
22779;DHT22;11556;51.194;3.800;2022-08-16T14:01:25;33.90;49.50
22779;DHT22;11556;51.194;3.800;2022-08-16T14:03:52;34.00;49.50
22779;DHT22;11556;51.194;3.800;2022-08-16T14:06:18;34.70;48.60
22779;DHT22;11556;51.194;3.800;2022-08-16T14:08:44;34.60;48.20
22779;DHT22;11556;51.194;3.800;2022-08-16T14:11:11;34.60;47.90
22779;DHT22;11556;51.194;3.800;2022-08-16T14:13:39;35.30;48.40
22779;DHT22;11556;51.194;3.800;2022-08-16T14:16:05;36.30;45.10
22779;DHT22;11556;51.194;3.800;2022-08-16T14:18:31;36.10;46.10
22779;DHT22;11556;51.194;3.800;2022-08-16T14:20:56;35.00;46.90
22779;DHT22;11556;51.194;3.800;2022-08-16T14:23:22;34.40;49.50
22779;DHT22;11556;51.194;3.800;2022-08-16T14:25:48;35.50;47.80
22779;DHT22;11556;51.194;3.800;2022-08-16T14:28:14;35.90;46.40
22779;DHT22;11556;51.194;3.800;2022-08-16T14:30:40;36.00;45.40
22779;DHT22;11556;51.194;3.800;2022-08-16T14:33:06;36.10;46.20
22779;DHT22;11556;51.194;3.800;2022-08-16T14:35:32;35.40;46.80
22779;DHT22;11556;51.194;3.800;2022-08-16T14:37:59;36.30;46.10
22779;DHT22;11556;51.194;3.800;2022-08-16T14:40:25;36.60;44.80
22779;DHT22;11556;51.194;3.800;2022-08-16T14:42:51;37.30;44.40
22779;DHT22;11556;51.194;3.800;2022-08-16T14:45:21;36.90;44.70
22779;DHT22;11556;51.194;3.800;2022-08-16T14:47:47;36.70;45.00
22779;DHT22;11556;51.194;3.800;2022-08-16T14:50:16;36.50;45.10
22779;DHT22;11556;51.194;3.800;2022-08-16T14:52:45;35.60;46.20
22779;DHT22;11556;51.194;3.800;2022-08-16T14:55:12;35.10;47.00
22779;DHT22;11556;51.194;3.800;2022-08-16T14:57:39;35.10;47.30
22779;DHT22;11556;51.194;3.800;2022-08-16T15:00:07;35.10;46.60
22779;DHT22;11556;51.194;3.800;2022-08-16T15:02:34;34.50;47.60
22779;DHT22;11556;51.194;3.800;2022-08-16T15:04:59;33.70;48.50
22779;DHT22;11556;51.194;3.800;2022-08-16T15:07:25;33.30;50.30
22779;DHT22;11556;51.194;3.800;2022-08-16T15:09:51;33.10;50.10
22779;DHT22;11556;51.194;3.800;2022-08-16T15:12:19;32.80;50.20
22779;DHT22;11556;51.194;3.800;2022-08-16T15:14:48;32.60;50.40
22779;DHT22;11556;51.194;3.800;2022-08-16T15:17:17;32.40;50.60
22779;DHT22;11556;51.194;3.800;2022-08-16T15:19:43;32.40;50.90
22779;DHT22;11556;51.194;3.800;2022-08-16T15:22:30;32.40;51.40
22779;DHT22;11556;51.194;3.800;2022-08-16T15:25:09;32.50;51.20
22779;DHT22;11556;51.194;3.800;2022-08-16T15:27:36;32.20;51.10